<?xml version="1.0" encoding="UTF-8" standalone="no" ?>
<gpx xmlns="http://www.topografix.com/GPX/1/1" xmlns:xsi="http://www.w3.org/2001/XMLSchema-instance" xsi:schemaLocation="http://www.topografix.com/GPX/1/1 http://www.topografix.com/GPX/1/1/gpx.xsd" version="1.1" creator="VisuGPX - https://www.visugpx.com">
  <metadata>
    <name>Treillaras</name>
    <desc><![CDATA[Boucle Pas de St-Vincent & Pas du Touet à l'envers en partant des Condamines
à St-Vincent la Commanderie. MBR]]></desc>
  </metadata>
  <trk>
    <name><![CDATA[Treillaras]]></name>
    <trkseg>
      <trkpt lat="44.91956" lon="5.14007">
        <ele>609</ele>
        <time>2019-03-17T08:26:12Z</time>
      </trkpt>
      <trkpt lat="44.91947" lon="5.14012">
        <ele>610</ele>
        <time>2019-03-17T08:27:49Z</time>
      </trkpt>
      <trkpt lat="44.91943" lon="5.14007">
        <ele>611</ele>
        <time>2019-03-17T08:28:11Z</time>
      </trkpt>
      <trkpt lat="44.91933" lon="5.14008">
        <ele>612</ele>
        <time>2019-03-17T08:28:21Z</time>
      </trkpt>
      <trkpt lat="44.91934" lon="5.14012">
        <ele>611</ele>
        <time>2019-03-17T08:28:31Z</time>
      </trkpt>
      <trkpt lat="44.91941" lon="5.14012">
        <ele>610</ele>
        <time>2019-03-17T08:28:42Z</time>
      </trkpt>
      <trkpt lat="44.91942" lon="5.14004">
        <ele>611</ele>
        <time>2019-03-17T08:29:18Z</time>
      </trkpt>
      <trkpt lat="44.91951" lon="5.14006">
        <ele>610</ele>
        <time>2019-03-17T08:31:43Z</time>
      </trkpt>
      <trkpt lat="44.91942" lon="5.14019">
        <ele>609</ele>
        <time>2019-03-17T08:32:47Z</time>
      </trkpt>
      <trkpt lat="44.91922" lon="5.14027">
        <ele>611</ele>
        <time>2019-03-17T08:33:14Z</time>
      </trkpt>
      <trkpt lat="44.91907" lon="5.14045">
        <ele>612</ele>
        <time>2019-03-17T08:33:43Z</time>
      </trkpt>
      <trkpt lat="44.91889" lon="5.1407">
        <ele>615</ele>
        <time>2019-03-17T08:34:09Z</time>
      </trkpt>
      <trkpt lat="44.9188" lon="5.14092">
        <ele>615</ele>
        <time>2019-03-17T08:34:31Z</time>
      </trkpt>
      <trkpt lat="44.9186" lon="5.14122">
        <ele>623</ele>
        <time>2019-03-17T08:34:54Z</time>
      </trkpt>
      <trkpt lat="44.91848" lon="5.14152">
        <ele>631</ele>
        <time>2019-03-17T08:35:21Z</time>
      </trkpt>
      <trkpt lat="44.9184" lon="5.14164">
        <ele>634</ele>
        <time>2019-03-17T08:35:47Z</time>
      </trkpt>
      <trkpt lat="44.91828" lon="5.14197">
        <ele>638</ele>
        <time>2019-03-17T08:36:09Z</time>
      </trkpt>
      <trkpt lat="44.91821" lon="5.14217">
        <ele>642</ele>
        <time>2019-03-17T08:36:33Z</time>
      </trkpt>
      <trkpt lat="44.9182" lon="5.14245">
        <ele>644</ele>
        <time>2019-03-17T08:37:03Z</time>
      </trkpt>
      <trkpt lat="44.91832" lon="5.14254">
        <ele>645</ele>
        <time>2019-03-17T08:42:32Z</time>
      </trkpt>
      <trkpt lat="44.91841" lon="5.14251">
        <ele>647</ele>
        <time>2019-03-17T08:42:54Z</time>
      </trkpt>
      <trkpt lat="44.91844" lon="5.14262">
        <ele>651</ele>
        <time>2019-03-17T08:43:25Z</time>
      </trkpt>
      <trkpt lat="44.91839" lon="5.14291">
        <ele>658</ele>
        <time>2019-03-17T08:44:21Z</time>
      </trkpt>
      <trkpt lat="44.91831" lon="5.14304">
        <ele>662</ele>
        <time>2019-03-17T08:44:36Z</time>
      </trkpt>
      <trkpt lat="44.91803" lon="5.14314">
        <ele>662</ele>
        <time>2019-03-17T08:44:49Z</time>
      </trkpt>
      <trkpt lat="44.91796" lon="5.1432">
        <ele>664</ele>
        <time>2019-03-17T08:45:03Z</time>
      </trkpt>
      <trkpt lat="44.91781" lon="5.14327">
        <ele>666</ele>
        <time>2019-03-17T08:45:27Z</time>
      </trkpt>
      <trkpt lat="44.9177" lon="5.14343">
        <ele>672</ele>
        <time>2019-03-17T08:45:44Z</time>
      </trkpt>
      <trkpt lat="44.91761" lon="5.14358">
        <ele>677</ele>
        <time>2019-03-17T08:46:02Z</time>
      </trkpt>
      <trkpt lat="44.91746" lon="5.14376">
        <ele>682</ele>
        <time>2019-03-17T08:46:30Z</time>
      </trkpt>
      <trkpt lat="44.91734" lon="5.14388">
        <ele>684</ele>
        <time>2019-03-17T08:46:59Z</time>
      </trkpt>
      <trkpt lat="44.91725" lon="5.14397">
        <ele>687</ele>
        <time>2019-03-17T08:47:20Z</time>
      </trkpt>
      <trkpt lat="44.91717" lon="5.1441">
        <ele>690</ele>
        <time>2019-03-17T08:47:46Z</time>
      </trkpt>
      <trkpt lat="44.91704" lon="5.14423">
        <ele>693</ele>
        <time>2019-03-17T08:48:05Z</time>
      </trkpt>
      <trkpt lat="44.91683" lon="5.14444">
        <ele>699</ele>
        <time>2019-03-17T08:48:25Z</time>
      </trkpt>
      <trkpt lat="44.91666" lon="5.14464">
        <ele>707</ele>
        <time>2019-03-17T08:48:54Z</time>
      </trkpt>
      <trkpt lat="44.91653" lon="5.14478">
        <ele>711</ele>
        <time>2019-03-17T08:49:28Z</time>
      </trkpt>
      <trkpt lat="44.91642" lon="5.14494">
        <ele>716</ele>
        <time>2019-03-17T08:49:55Z</time>
      </trkpt>
      <trkpt lat="44.91642" lon="5.14518">
        <ele>721</ele>
        <time>2019-03-17T08:50:21Z</time>
      </trkpt>
      <trkpt lat="44.91637" lon="5.14546">
        <ele>727</ele>
        <time>2019-03-17T08:50:43Z</time>
      </trkpt>
      <trkpt lat="44.91641" lon="5.14575">
        <ele>730</ele>
        <time>2019-03-17T08:51:05Z</time>
      </trkpt>
      <trkpt lat="44.91637" lon="5.14591">
        <ele>732</ele>
        <time>2019-03-17T08:51:34Z</time>
      </trkpt>
      <trkpt lat="44.91636" lon="5.1461">
        <ele>734</ele>
        <time>2019-03-17T08:52:02Z</time>
      </trkpt>
      <trkpt lat="44.91619" lon="5.1462">
        <ele>739</ele>
        <time>2019-03-17T08:52:32Z</time>
      </trkpt>
      <trkpt lat="44.91615" lon="5.14632">
        <ele>742</ele>
        <time>2019-03-17T08:53:01Z</time>
      </trkpt>
      <trkpt lat="44.91607" lon="5.14661">
        <ele>749</ele>
        <time>2019-03-17T08:53:28Z</time>
      </trkpt>
      <trkpt lat="44.91593" lon="5.14707">
        <ele>761</ele>
        <time>2019-03-17T08:53:56Z</time>
      </trkpt>
      <trkpt lat="44.91578" lon="5.14751">
        <ele>774</ele>
        <time>2019-03-17T08:54:27Z</time>
      </trkpt>
      <trkpt lat="44.91589" lon="5.1481">
        <ele>786</ele>
        <time>2019-03-17T08:54:54Z</time>
      </trkpt>
      <trkpt lat="44.91597" lon="5.14861">
        <ele>800</ele>
        <time>2019-03-17T08:55:26Z</time>
      </trkpt>
      <trkpt lat="44.91608" lon="5.14887">
        <ele>805</ele>
        <time>2019-03-17T08:55:55Z</time>
      </trkpt>
      <trkpt lat="44.9162" lon="5.14911">
        <ele>808</ele>
        <time>2019-03-17T08:56:24Z</time>
      </trkpt>
      <trkpt lat="44.91628" lon="5.14928">
        <ele>809</ele>
        <time>2019-03-17T08:57:10Z</time>
      </trkpt>
      <trkpt lat="44.91631" lon="5.14944">
        <ele>810</ele>
        <time>2019-03-17T08:57:54Z</time>
      </trkpt>
      <trkpt lat="44.91613" lon="5.14959">
        <ele>817</ele>
        <time>2019-03-17T08:58:29Z</time>
      </trkpt>
      <trkpt lat="44.91603" lon="5.1498">
        <ele>823</ele>
        <time>2019-03-17T08:58:50Z</time>
      </trkpt>
      <trkpt lat="44.91591" lon="5.15011">
        <ele>832</ele>
        <time>2019-03-17T08:59:09Z</time>
      </trkpt>
      <trkpt lat="44.91592" lon="5.15035">
        <ele>836</ele>
        <time>2019-03-17T08:59:27Z</time>
      </trkpt>
      <trkpt lat="44.91594" lon="5.1506">
        <ele>839</ele>
        <time>2019-03-17T08:59:47Z</time>
      </trkpt>
      <trkpt lat="44.91593" lon="5.15083">
        <ele>843</ele>
        <time>2019-03-17T09:00:17Z</time>
      </trkpt>
      <trkpt lat="44.91592" lon="5.15105">
        <ele>848</ele>
        <time>2019-03-17T09:00:36Z</time>
      </trkpt>
      <trkpt lat="44.91589" lon="5.1512">
        <ele>854</ele>
        <time>2019-03-17T09:00:53Z</time>
      </trkpt>
      <trkpt lat="44.91588" lon="5.1515">
        <ele>861</ele>
        <time>2019-03-17T09:01:10Z</time>
      </trkpt>
      <trkpt lat="44.91585" lon="5.15184">
        <ele>871</ele>
        <time>2019-03-17T09:01:30Z</time>
      </trkpt>
      <trkpt lat="44.91588" lon="5.15219">
        <ele>879</ele>
        <time>2019-03-17T09:01:49Z</time>
      </trkpt>
      <trkpt lat="44.91588" lon="5.15235">
        <ele>883</ele>
        <time>2019-03-17T09:02:16Z</time>
      </trkpt>
      <trkpt lat="44.916" lon="5.15294">
        <ele>893</ele>
        <time>2019-03-17T09:02:47Z</time>
      </trkpt>
      <trkpt lat="44.91607" lon="5.1533">
        <ele>900</ele>
        <time>2019-03-17T09:03:11Z</time>
      </trkpt>
      <trkpt lat="44.9161" lon="5.15365">
        <ele>908</ele>
        <time>2019-03-17T09:03:39Z</time>
      </trkpt>
      <trkpt lat="44.91615" lon="5.15391">
        <ele>913</ele>
        <time>2019-03-17T09:04:03Z</time>
      </trkpt>
      <trkpt lat="44.91621" lon="5.15421">
        <ele>920</ele>
        <time>2019-03-17T09:04:35Z</time>
      </trkpt>
      <trkpt lat="44.91624" lon="5.1545">
        <ele>928</ele>
        <time>2019-03-17T09:05:03Z</time>
      </trkpt>
      <trkpt lat="44.9163" lon="5.15477">
        <ele>934</ele>
        <time>2019-03-17T09:05:36Z</time>
      </trkpt>
      <trkpt lat="44.91637" lon="5.15508">
        <ele>942</ele>
        <time>2019-03-17T09:06:06Z</time>
      </trkpt>
      <trkpt lat="44.91641" lon="5.1553">
        <ele>949</ele>
        <time>2019-03-17T09:06:35Z</time>
      </trkpt>
      <trkpt lat="44.91647" lon="5.15559">
        <ele>957</ele>
        <time>2019-03-17T09:07:11Z</time>
      </trkpt>
      <trkpt lat="44.91651" lon="5.15587">
        <ele>968</ele>
        <time>2019-03-17T09:07:44Z</time>
      </trkpt>
      <trkpt lat="44.91656" lon="5.15608">
        <ele>975</ele>
        <time>2019-03-17T09:08:09Z</time>
      </trkpt>
      <trkpt lat="44.91669" lon="5.15633">
        <ele>980</ele>
        <time>2019-03-17T09:08:49Z</time>
      </trkpt>
      <trkpt lat="44.91675" lon="5.15655">
        <ele>990</ele>
        <time>2019-03-17T09:09:26Z</time>
      </trkpt>
      <trkpt lat="44.91685" lon="5.15681">
        <ele>1000</ele>
        <time>2019-03-17T09:09:56Z</time>
      </trkpt>
      <trkpt lat="44.91698" lon="5.15697">
        <ele>1003</ele>
        <time>2019-03-17T09:10:23Z</time>
      </trkpt>
      <trkpt lat="44.91711" lon="5.15719">
        <ele>1010</ele>
        <time>2019-03-17T09:10:55Z</time>
      </trkpt>
      <trkpt lat="44.91724" lon="5.15738">
        <ele>1016</ele>
        <time>2019-03-17T09:11:17Z</time>
      </trkpt>
      <trkpt lat="44.91732" lon="5.15755">
        <ele>1021</ele>
        <time>2019-03-17T09:11:50Z</time>
      </trkpt>
      <trkpt lat="44.91741" lon="5.15777">
        <ele>1032</ele>
        <time>2019-03-17T09:12:16Z</time>
      </trkpt>
      <trkpt lat="44.91754" lon="5.15798">
        <ele>1040</ele>
        <time>2019-03-17T09:12:52Z</time>
      </trkpt>
      <trkpt lat="44.91765" lon="5.15826">
        <ele>1051</ele>
        <time>2019-03-17T09:13:34Z</time>
      </trkpt>
      <trkpt lat="44.91776" lon="5.15842">
        <ele>1054</ele>
        <time>2019-03-17T09:14:09Z</time>
      </trkpt>
      <trkpt lat="44.91782" lon="5.15866">
        <ele>1063</ele>
        <time>2019-03-17T09:14:36Z</time>
      </trkpt>
      <trkpt lat="44.91793" lon="5.15889">
        <ele>1068</ele>
        <time>2019-03-17T09:15:00Z</time>
      </trkpt>
      <trkpt lat="44.91805" lon="5.15899">
        <ele>1067</ele>
        <time>2019-03-17T09:15:31Z</time>
      </trkpt>
      <trkpt lat="44.91816" lon="5.15914">
        <ele>1068</ele>
        <time>2019-03-17T09:15:57Z</time>
      </trkpt>
      <trkpt lat="44.91816" lon="5.15922">
        <ele>1071</ele>
        <time>2019-03-17T10:45:06Z</time>
      </trkpt>
      <trkpt lat="44.91814" lon="5.15932">
        <ele>1077</ele>
        <time>2019-03-17T10:45:59Z</time>
      </trkpt>
      <trkpt lat="44.91814" lon="5.15941">
        <ele>1081</ele>
        <time>2019-03-17T10:47:01Z</time>
      </trkpt>
      <trkpt lat="44.918" lon="5.15934">
        <ele>1086</ele>
        <time>2019-03-17T10:47:43Z</time>
      </trkpt>
      <trkpt lat="44.91787" lon="5.15922">
        <ele>1087</ele>
        <time>2019-03-17T10:48:19Z</time>
      </trkpt>
      <trkpt lat="44.91776" lon="5.15917">
        <ele>1091</ele>
        <time>2019-03-17T10:48:57Z</time>
      </trkpt>
      <trkpt lat="44.91756" lon="5.1591">
        <ele>1099</ele>
        <time>2019-03-17T10:49:35Z</time>
      </trkpt>
      <trkpt lat="44.91764" lon="5.15913">
        <ele>1096</ele>
        <time>2019-03-17T10:50:23Z</time>
      </trkpt>
      <trkpt lat="44.91747" lon="5.15905">
        <ele>1104</ele>
        <time>2019-03-17T10:51:21Z</time>
      </trkpt>
      <trkpt lat="44.91736" lon="5.15902">
        <ele>1107</ele>
        <time>2019-03-17T10:52:05Z</time>
      </trkpt>
      <trkpt lat="44.91737" lon="5.15914">
        <ele>1109</ele>
        <time>2019-03-17T10:53:28Z</time>
      </trkpt>
      <trkpt lat="44.9174" lon="5.15926">
        <ele>1111</ele>
        <time>2019-03-17T10:55:32Z</time>
      </trkpt>
      <trkpt lat="44.91748" lon="5.15939">
        <ele>1111</ele>
        <time>2019-03-17T10:55:49Z</time>
      </trkpt>
      <trkpt lat="44.91755" lon="5.15947">
        <ele>1111</ele>
        <time>2019-03-17T10:56:19Z</time>
      </trkpt>
      <trkpt lat="44.91762" lon="5.15955">
        <ele>1111</ele>
        <time>2019-03-17T10:56:39Z</time>
      </trkpt>
      <trkpt lat="44.91775" lon="5.15968">
        <ele>1110</ele>
        <time>2019-03-17T10:56:58Z</time>
      </trkpt>
      <trkpt lat="44.91785" lon="5.15975">
        <ele>1109</ele>
        <time>2019-03-17T10:57:16Z</time>
      </trkpt>
      <trkpt lat="44.91795" lon="5.15984">
        <ele>1105</ele>
        <time>2019-03-17T10:57:36Z</time>
      </trkpt>
      <trkpt lat="44.91801" lon="5.1599">
        <ele>1103</ele>
        <time>2019-03-17T10:57:53Z</time>
      </trkpt>
      <trkpt lat="44.91809" lon="5.15996">
        <ele>1101</ele>
        <time>2019-03-17T10:58:10Z</time>
      </trkpt>
      <trkpt lat="44.91817" lon="5.15998">
        <ele>1098</ele>
        <time>2019-03-17T10:58:29Z</time>
      </trkpt>
      <trkpt lat="44.91823" lon="5.15992">
        <ele>1093</ele>
        <time>2019-03-17T10:58:47Z</time>
      </trkpt>
      <trkpt lat="44.91829" lon="5.16018">
        <ele>1098</ele>
        <time>2019-03-17T10:59:05Z</time>
      </trkpt>
      <trkpt lat="44.91831" lon="5.16034">
        <ele>1101</ele>
        <time>2019-03-17T10:59:25Z</time>
      </trkpt>
      <trkpt lat="44.91843" lon="5.16059">
        <ele>1097</ele>
        <time>2019-03-17T10:59:48Z</time>
      </trkpt>
      <trkpt lat="44.9184" lon="5.16079">
        <ele>1101</ele>
        <time>2019-03-17T11:00:09Z</time>
      </trkpt>
      <trkpt lat="44.91837" lon="5.1613">
        <ele>1107</ele>
        <time>2019-03-17T11:00:27Z</time>
      </trkpt>
      <trkpt lat="44.91836" lon="5.16149">
        <ele>1109</ele>
        <time>2019-03-17T11:00:48Z</time>
      </trkpt>
      <trkpt lat="44.91838" lon="5.16176">
        <ele>1111</ele>
        <time>2019-03-17T11:01:45Z</time>
      </trkpt>
      <trkpt lat="44.91838" lon="5.1622">
        <ele>1116</ele>
        <time>2019-03-17T11:02:07Z</time>
      </trkpt>
      <trkpt lat="44.91838" lon="5.16256">
        <ele>1119</ele>
        <time>2019-03-17T11:02:27Z</time>
      </trkpt>
      <trkpt lat="44.91836" lon="5.16288">
        <ele>1123</ele>
        <time>2019-03-17T11:02:50Z</time>
      </trkpt>
      <trkpt lat="44.91836" lon="5.16321">
        <ele>1129</ele>
        <time>2019-03-17T11:03:07Z</time>
      </trkpt>
      <trkpt lat="44.91835" lon="5.16346">
        <ele>1135</ele>
        <time>2019-03-17T11:03:26Z</time>
      </trkpt>
      <trkpt lat="44.91826" lon="5.16373">
        <ele>1147</ele>
        <time>2019-03-17T11:03:45Z</time>
      </trkpt>
      <trkpt lat="44.9181" lon="5.16428">
        <ele>1164</ele>
        <time>2019-03-17T11:04:04Z</time>
      </trkpt>
      <trkpt lat="44.91809" lon="5.16469">
        <ele>1173</ele>
        <time>2019-03-17T11:04:26Z</time>
      </trkpt>
      <trkpt lat="44.91805" lon="5.16507">
        <ele>1176</ele>
        <time>2019-03-17T11:04:56Z</time>
      </trkpt>
      <trkpt lat="44.9181" lon="5.1655">
        <ele>1179</ele>
        <time>2019-03-17T11:05:13Z</time>
      </trkpt>
      <trkpt lat="44.91813" lon="5.16585">
        <ele>1178</ele>
        <time>2019-03-17T11:05:31Z</time>
      </trkpt>
      <trkpt lat="44.91811" lon="5.16622">
        <ele>1176</ele>
        <time>2019-03-17T11:05:47Z</time>
      </trkpt>
      <trkpt lat="44.91812" lon="5.16658">
        <ele>1174</ele>
        <time>2019-03-17T11:06:05Z</time>
      </trkpt>
      <trkpt lat="44.91811" lon="5.16685">
        <ele>1171</ele>
        <time>2019-03-17T11:07:06Z</time>
      </trkpt>
      <trkpt lat="44.91819" lon="5.16723">
        <ele>1170</ele>
        <time>2019-03-17T11:07:20Z</time>
      </trkpt>
      <trkpt lat="44.91823" lon="5.16749">
        <ele>1170</ele>
        <time>2019-03-17T11:07:34Z</time>
      </trkpt>
      <trkpt lat="44.91829" lon="5.16775">
        <ele>1171</ele>
        <time>2019-03-17T11:07:51Z</time>
      </trkpt>
      <trkpt lat="44.91838" lon="5.168">
        <ele>1174</ele>
        <time>2019-03-17T11:08:08Z</time>
      </trkpt>
      <trkpt lat="44.91844" lon="5.16826">
        <ele>1175</ele>
        <time>2019-03-17T11:08:31Z</time>
      </trkpt>
      <trkpt lat="44.9184" lon="5.16857">
        <ele>1174</ele>
        <time>2019-03-17T11:08:54Z</time>
      </trkpt>
      <trkpt lat="44.91837" lon="5.16878">
        <ele>1174</ele>
        <time>2019-03-17T11:09:21Z</time>
      </trkpt>
      <trkpt lat="44.91828" lon="5.16881">
        <ele>1172</ele>
        <time>2019-03-17T11:09:43Z</time>
      </trkpt>
      <trkpt lat="44.91812" lon="5.16858">
        <ele>1166</ele>
        <time>2019-03-17T11:10:06Z</time>
      </trkpt>
      <trkpt lat="44.91796" lon="5.16838">
        <ele>1162</ele>
        <time>2019-03-17T11:10:33Z</time>
      </trkpt>
      <trkpt lat="44.91779" lon="5.16818">
        <ele>1157</ele>
        <time>2019-03-17T11:10:56Z</time>
      </trkpt>
      <trkpt lat="44.91763" lon="5.16797">
        <ele>1153</ele>
        <time>2019-03-17T11:11:13Z</time>
      </trkpt>
      <trkpt lat="44.91742" lon="5.16764">
        <ele>1149</ele>
      </trkpt>
      <trkpt lat="44.91729" lon="5.1673">
        <ele>1142</ele>
      </trkpt>
      <trkpt lat="44.91721" lon="5.16712">
        <ele>1139</ele>
      </trkpt>
      <trkpt lat="44.91708" lon="5.16686">
        <ele>1138</ele>
      </trkpt>
      <trkpt lat="44.91696" lon="5.16668">
        <ele>1135</ele>
      </trkpt>
      <trkpt lat="44.91685" lon="5.16644">
        <ele>1129</ele>
      </trkpt>
      <trkpt lat="44.91669" lon="5.16614">
        <ele>1127</ele>
      </trkpt>
      <trkpt lat="44.9166" lon="5.16598">
        <ele>1124</ele>
      </trkpt>
      <trkpt lat="44.9164" lon="5.16573">
        <ele>1116</ele>
      </trkpt>
      <trkpt lat="44.91627" lon="5.1656">
        <ele>1113</ele>
      </trkpt>
      <trkpt lat="44.91609" lon="5.16542">
        <ele>1106</ele>
      </trkpt>
      <trkpt lat="44.91593" lon="5.16522">
        <ele>1099</ele>
      </trkpt>
      <trkpt lat="44.91577" lon="5.16501">
        <ele>1098</ele>
      </trkpt>
      <trkpt lat="44.9156" lon="5.16476">
        <ele>1095</ele>
      </trkpt>
      <trkpt lat="44.91545" lon="5.1645">
        <ele>1092</ele>
      </trkpt>
      <trkpt lat="44.91531" lon="5.16425">
        <ele>1091</ele>
      </trkpt>
      <trkpt lat="44.91514" lon="5.16401">
        <ele>1089</ele>
      </trkpt>
      <trkpt lat="44.91506" lon="5.16377">
        <ele>1090</ele>
      </trkpt>
      <trkpt lat="44.9149" lon="5.16347">
        <ele>1090</ele>
      </trkpt>
      <trkpt lat="44.91475" lon="5.16329">
        <ele>1088</ele>
      </trkpt>
      <trkpt lat="44.91453" lon="5.16292">
        <ele>1088</ele>
      </trkpt>
      <trkpt lat="44.91428" lon="5.16252">
        <ele>1085</ele>
      </trkpt>
      <trkpt lat="44.91409" lon="5.16223">
        <ele>1083</ele>
      </trkpt>
      <trkpt lat="44.91386" lon="5.16198">
        <ele>1080</ele>
      </trkpt>
      <trkpt lat="44.91366" lon="5.16178">
        <ele>1077</ele>
      </trkpt>
      <trkpt lat="44.91345" lon="5.1615">
        <ele>1076</ele>
      </trkpt>
      <trkpt lat="44.91326" lon="5.16125">
        <ele>1073</ele>
      </trkpt>
      <trkpt lat="44.91311" lon="5.16107">
        <ele>1072</ele>
        <time>2019-03-17T11:11:30Z</time>
      </trkpt>
      <trkpt lat="44.91299" lon="5.16099">
        <ele>1071</ele>
        <time>2019-03-17T11:11:51Z</time>
      </trkpt>
      <trkpt lat="44.91294" lon="5.16104">
        <ele>1069</ele>
        <time>2019-03-17T11:12:39Z</time>
      </trkpt>
      <trkpt lat="44.9128" lon="5.16096">
        <ele>1068</ele>
        <time>2019-03-17T11:12:57Z</time>
      </trkpt>
      <trkpt lat="44.91264" lon="5.16092">
        <ele>1067</ele>
        <time>2019-03-17T11:13:11Z</time>
      </trkpt>
      <trkpt lat="44.91246" lon="5.16087">
        <ele>1065</ele>
        <time>2019-03-17T11:13:28Z</time>
      </trkpt>
      <trkpt lat="44.91226" lon="5.16081">
        <ele>1065</ele>
        <time>2019-03-17T11:13:41Z</time>
      </trkpt>
      <trkpt lat="44.9121" lon="5.16083">
        <ele>1064</ele>
        <time>2019-03-17T11:13:55Z</time>
      </trkpt>
      <trkpt lat="44.91195" lon="5.16089">
        <ele>1062</ele>
        <time>2019-03-17T11:14:11Z</time>
      </trkpt>
      <trkpt lat="44.91173" lon="5.16096">
        <ele>1060</ele>
        <time>2019-03-17T11:14:30Z</time>
      </trkpt>
      <trkpt lat="44.91149" lon="5.16094">
        <ele>1060</ele>
        <time>2019-03-17T11:14:51Z</time>
      </trkpt>
      <trkpt lat="44.91126" lon="5.16091">
        <ele>1059</ele>
        <time>2019-03-17T11:15:09Z</time>
      </trkpt>
      <trkpt lat="44.91108" lon="5.16082">
        <ele>1060</ele>
        <time>2019-03-17T11:15:26Z</time>
      </trkpt>
      <trkpt lat="44.91094" lon="5.16059">
        <ele>1060</ele>
        <time>2019-03-17T11:15:45Z</time>
      </trkpt>
      <trkpt lat="44.91079" lon="5.16035">
        <ele>1061</ele>
        <time>2019-03-17T11:16:05Z</time>
      </trkpt>
      <trkpt lat="44.91062" lon="5.16021">
        <ele>1060</ele>
        <time>2019-03-17T11:16:21Z</time>
      </trkpt>
      <trkpt lat="44.91042" lon="5.1601">
        <ele>1059</ele>
        <time>2019-03-17T11:16:35Z</time>
      </trkpt>
      <trkpt lat="44.91028" lon="5.16003">
        <ele>1058</ele>
        <time>2019-03-17T11:16:48Z</time>
      </trkpt>
      <trkpt lat="44.91011" lon="5.15993">
        <ele>1057</ele>
        <time>2019-03-17T11:17:01Z</time>
      </trkpt>
      <trkpt lat="44.90998" lon="5.15987">
        <ele>1057</ele>
        <time>2019-03-17T11:17:16Z</time>
      </trkpt>
      <trkpt lat="44.90985" lon="5.15981">
        <ele>1057</ele>
        <time>2019-03-17T11:17:28Z</time>
      </trkpt>
      <trkpt lat="44.90976" lon="5.15975">
        <ele>1057</ele>
        <time>2019-03-17T11:17:38Z</time>
      </trkpt>
      <trkpt lat="44.90961" lon="5.15974">
        <ele>1057</ele>
        <time>2019-03-17T11:17:55Z</time>
      </trkpt>
      <trkpt lat="44.9094" lon="5.15963">
        <ele>1057</ele>
        <time>2019-03-17T11:18:13Z</time>
      </trkpt>
      <trkpt lat="44.90919" lon="5.15966">
        <ele>1057</ele>
        <time>2019-03-17T11:18:31Z</time>
      </trkpt>
      <trkpt lat="44.90901" lon="5.15982">
        <ele>1056</ele>
        <time>2019-03-17T11:18:50Z</time>
      </trkpt>
      <trkpt lat="44.9088" lon="5.1599">
        <ele>1056</ele>
        <time>2019-03-17T11:19:06Z</time>
      </trkpt>
      <trkpt lat="44.90863" lon="5.15997">
        <ele>1057</ele>
        <time>2019-03-17T11:19:19Z</time>
      </trkpt>
      <trkpt lat="44.90842" lon="5.15997">
        <ele>1057</ele>
        <time>2019-03-17T11:19:38Z</time>
      </trkpt>
      <trkpt lat="44.90822" lon="5.15995">
        <ele>1057</ele>
        <time>2019-03-17T11:19:58Z</time>
      </trkpt>
      <trkpt lat="44.90804" lon="5.15987">
        <ele>1057</ele>
        <time>2019-03-17T11:20:17Z</time>
      </trkpt>
      <trkpt lat="44.90784" lon="5.15972">
        <ele>1056</ele>
        <time>2019-03-17T11:20:36Z</time>
      </trkpt>
      <trkpt lat="44.9077" lon="5.15952">
        <ele>1056</ele>
        <time>2019-03-17T11:20:53Z</time>
      </trkpt>
      <trkpt lat="44.90762" lon="5.15926">
        <ele>1056</ele>
        <time>2019-03-17T11:21:11Z</time>
      </trkpt>
      <trkpt lat="44.90757" lon="5.15898">
        <ele>1056</ele>
        <time>2019-03-17T11:21:28Z</time>
      </trkpt>
      <trkpt lat="44.9075" lon="5.15875">
        <ele>1057</ele>
        <time>2019-03-17T11:21:46Z</time>
      </trkpt>
      <trkpt lat="44.90741" lon="5.15848">
        <ele>1057</ele>
        <time>2019-03-17T11:22:05Z</time>
      </trkpt>
      <trkpt lat="44.90731" lon="5.15825">
        <ele>1059</ele>
        <time>2019-03-17T11:22:24Z</time>
      </trkpt>
      <trkpt lat="44.90709" lon="5.15821">
        <ele>1057</ele>
        <time>2019-03-17T11:22:40Z</time>
      </trkpt>
      <trkpt lat="44.90689" lon="5.15831">
        <ele>1055</ele>
        <time>2019-03-17T11:23:00Z</time>
      </trkpt>
      <trkpt lat="44.90678" lon="5.15864">
        <ele>1052</ele>
        <time>2019-03-17T11:23:18Z</time>
      </trkpt>
      <trkpt lat="44.90675" lon="5.15887">
        <ele>1051</ele>
        <time>2019-03-17T11:23:34Z</time>
      </trkpt>
      <trkpt lat="44.90664" lon="5.15908">
        <ele>1050</ele>
        <time>2019-03-17T11:23:58Z</time>
      </trkpt>
      <trkpt lat="44.90644" lon="5.159">
        <ele>1050</ele>
        <time>2019-03-17T11:24:16Z</time>
      </trkpt>
      <trkpt lat="44.90632" lon="5.15896">
        <ele>1049</ele>
        <time>2019-03-17T11:24:49Z</time>
      </trkpt>
      <trkpt lat="44.90633" lon="5.15896">
        <ele>1049</ele>
        <time>2019-03-17T11:25:55Z</time>
      </trkpt>
      <trkpt lat="44.90626" lon="5.15891">
        <ele>1049</ele>
        <time>2019-03-17T11:26:56Z</time>
      </trkpt>
      <trkpt lat="44.9061" lon="5.15876">
        <ele>1049</ele>
        <time>2019-03-17T11:27:12Z</time>
      </trkpt>
      <trkpt lat="44.90591" lon="5.15864">
        <ele>1048</ele>
        <time>2019-03-17T11:27:29Z</time>
      </trkpt>
      <trkpt lat="44.90569" lon="5.1586">
        <ele>1047</ele>
        <time>2019-03-17T11:27:51Z</time>
      </trkpt>
      <trkpt lat="44.90545" lon="5.15872">
        <ele>1045</ele>
        <time>2019-03-17T11:28:13Z</time>
      </trkpt>
      <trkpt lat="44.90521" lon="5.15875">
        <ele>1044</ele>
        <time>2019-03-17T11:28:33Z</time>
      </trkpt>
      <trkpt lat="44.90493" lon="5.15864">
        <ele>1043</ele>
        <time>2019-03-17T11:28:54Z</time>
      </trkpt>
      <trkpt lat="44.90475" lon="5.1585">
        <ele>1044</ele>
        <time>2019-03-17T11:29:13Z</time>
      </trkpt>
      <trkpt lat="44.90451" lon="5.15842">
        <ele>1044</ele>
        <time>2019-03-17T11:29:30Z</time>
      </trkpt>
      <trkpt lat="44.9043" lon="5.15838">
        <ele>1043</ele>
        <time>2019-03-17T11:29:52Z</time>
      </trkpt>
      <trkpt lat="44.90401" lon="5.15826">
        <ele>1042</ele>
        <time>2019-03-17T11:30:13Z</time>
      </trkpt>
      <trkpt lat="44.90382" lon="5.15821">
        <ele>1041</ele>
        <time>2019-03-17T11:30:28Z</time>
      </trkpt>
      <trkpt lat="44.90364" lon="5.1582">
        <ele>1040</ele>
        <time>2019-03-17T11:30:44Z</time>
      </trkpt>
      <trkpt lat="44.90345" lon="5.15824">
        <ele>1039</ele>
        <time>2019-03-17T11:30:58Z</time>
      </trkpt>
      <trkpt lat="44.90327" lon="5.15826">
        <ele>1038</ele>
        <time>2019-03-17T11:31:12Z</time>
      </trkpt>
      <trkpt lat="44.9031" lon="5.15829">
        <ele>1038</ele>
        <time>2019-03-17T11:31:26Z</time>
      </trkpt>
      <trkpt lat="44.90289" lon="5.15831">
        <ele>1038</ele>
        <time>2019-03-17T11:31:42Z</time>
      </trkpt>
      <trkpt lat="44.9027" lon="5.1583">
        <ele>1039</ele>
        <time>2019-03-17T11:31:58Z</time>
      </trkpt>
      <trkpt lat="44.90254" lon="5.15822">
        <ele>1039</ele>
        <time>2019-03-17T11:32:21Z</time>
      </trkpt>
      <trkpt lat="44.90236" lon="5.15815">
        <ele>1039</ele>
        <time>2019-03-17T11:32:37Z</time>
      </trkpt>
      <trkpt lat="44.90218" lon="5.1581">
        <ele>1039</ele>
        <time>2019-03-17T11:32:52Z</time>
      </trkpt>
      <trkpt lat="44.90204" lon="5.15798">
        <ele>1038</ele>
        <time>2019-03-17T11:33:07Z</time>
      </trkpt>
      <trkpt lat="44.90191" lon="5.15782">
        <ele>1038</ele>
        <time>2019-03-17T11:33:24Z</time>
      </trkpt>
      <trkpt lat="44.9018" lon="5.15764">
        <ele>1037</ele>
        <time>2019-03-17T11:33:38Z</time>
      </trkpt>
      <trkpt lat="44.90168" lon="5.15749">
        <ele>1037</ele>
        <time>2019-03-17T11:33:52Z</time>
      </trkpt>
      <trkpt lat="44.90157" lon="5.1573">
        <ele>1037</ele>
        <time>2019-03-17T11:34:06Z</time>
      </trkpt>
      <trkpt lat="44.90144" lon="5.15709">
        <ele>1037</ele>
        <time>2019-03-17T11:34:22Z</time>
      </trkpt>
      <trkpt lat="44.9013" lon="5.15693">
        <ele>1038</ele>
        <time>2019-03-17T11:34:36Z</time>
      </trkpt>
      <trkpt lat="44.90116" lon="5.15678">
        <ele>1038</ele>
        <time>2019-03-17T11:34:51Z</time>
      </trkpt>
      <trkpt lat="44.90104" lon="5.15669">
        <ele>1039</ele>
        <time>2019-03-17T11:35:15Z</time>
      </trkpt>
      <trkpt lat="44.901" lon="5.15645">
        <ele>1039</ele>
        <time>2019-03-17T11:35:35Z</time>
      </trkpt>
      <trkpt lat="44.90102" lon="5.15617">
        <ele>1039</ele>
        <time>2019-03-17T11:35:54Z</time>
      </trkpt>
      <trkpt lat="44.90104" lon="5.15591">
        <ele>1040</ele>
        <time>2019-03-17T11:36:12Z</time>
      </trkpt>
      <trkpt lat="44.90095" lon="5.15558">
        <ele>1042</ele>
        <time>2019-03-17T11:36:40Z</time>
      </trkpt>
      <trkpt lat="44.9009" lon="5.15529">
        <ele>1042</ele>
        <time>2019-03-17T11:37:00Z</time>
      </trkpt>
      <trkpt lat="44.90093" lon="5.15509">
        <ele>1043</ele>
        <time>2019-03-17T11:37:27Z</time>
      </trkpt>
      <trkpt lat="44.9009" lon="5.15483">
        <ele>1044</ele>
        <time>2019-03-17T11:37:48Z</time>
      </trkpt>
      <trkpt lat="44.90085" lon="5.1546">
        <ele>1048</ele>
        <time>2019-03-17T11:38:05Z</time>
      </trkpt>
      <trkpt lat="44.90081" lon="5.15437">
        <ele>1050</ele>
        <time>2019-03-17T11:38:21Z</time>
      </trkpt>
      <trkpt lat="44.90083" lon="5.15417">
        <ele>1052</ele>
        <time>2019-03-17T11:38:35Z</time>
      </trkpt>
      <trkpt lat="44.90095" lon="5.15412">
        <ele>1052</ele>
        <time>2019-03-17T11:38:52Z</time>
      </trkpt>
      <trkpt lat="44.90101" lon="5.15387">
        <ele>1054</ele>
        <time>2019-03-17T11:39:09Z</time>
      </trkpt>
      <trkpt lat="44.90111" lon="5.15364">
        <ele>1056</ele>
        <time>2019-03-17T11:39:25Z</time>
      </trkpt>
      <trkpt lat="44.9012" lon="5.15343">
        <ele>1057</ele>
        <time>2019-03-17T11:39:42Z</time>
      </trkpt>
      <trkpt lat="44.90125" lon="5.15317">
        <ele>1057</ele>
        <time>2019-03-17T11:40:00Z</time>
      </trkpt>
      <trkpt lat="44.9013" lon="5.15286">
        <ele>1058</ele>
        <time>2019-03-17T11:40:23Z</time>
      </trkpt>
      <trkpt lat="44.90136" lon="5.15256">
        <ele>1058</ele>
        <time>2019-03-17T11:40:45Z</time>
      </trkpt>
      <trkpt lat="44.90148" lon="5.15234">
        <ele>1058</ele>
        <time>2019-03-17T11:41:07Z</time>
      </trkpt>
      <trkpt lat="44.90161" lon="5.15217">
        <ele>1059</ele>
        <time>2019-03-17T11:41:33Z</time>
      </trkpt>
      <trkpt lat="44.90174" lon="5.15194">
        <ele>1060</ele>
        <time>2019-03-17T11:41:52Z</time>
      </trkpt>
      <trkpt lat="44.90185" lon="5.1517">
        <ele>1060</ele>
        <time>2019-03-17T11:42:11Z</time>
      </trkpt>
      <trkpt lat="44.90193" lon="5.15141">
        <ele>1060</ele>
        <time>2019-03-17T11:42:35Z</time>
      </trkpt>
      <trkpt lat="44.90201" lon="5.15108">
        <ele>1060</ele>
        <time>2019-03-17T11:42:58Z</time>
      </trkpt>
      <trkpt lat="44.90216" lon="5.15088">
        <ele>1060</ele>
        <time>2019-03-17T11:43:20Z</time>
      </trkpt>
      <trkpt lat="44.90217" lon="5.15057">
        <ele>1060</ele>
        <time>2019-03-17T11:43:43Z</time>
      </trkpt>
      <trkpt lat="44.90212" lon="5.15023">
        <ele>1062</ele>
        <time>2019-03-17T11:44:06Z</time>
      </trkpt>
      <trkpt lat="44.90203" lon="5.14996">
        <ele>1065</ele>
        <time>2019-03-17T11:44:29Z</time>
      </trkpt>
      <trkpt lat="44.90189" lon="5.14978">
        <ele>1069</ele>
        <time>2019-03-17T11:44:48Z</time>
      </trkpt>
      <trkpt lat="44.90177" lon="5.14958">
        <ele>1073</ele>
        <time>2019-03-17T11:45:09Z</time>
      </trkpt>
      <trkpt lat="44.90168" lon="5.1493">
        <ele>1078</ele>
        <time>2019-03-17T11:45:32Z</time>
      </trkpt>
      <trkpt lat="44.90156" lon="5.14906">
        <ele>1078</ele>
        <time>2019-03-17T11:46:07Z</time>
      </trkpt>
      <trkpt lat="44.90159" lon="5.14898">
        <ele>1078</ele>
        <time>2019-03-17T11:46:49Z</time>
      </trkpt>
      <trkpt lat="44.90157" lon="5.14897">
        <ele>1078</ele>
        <time>2019-03-17T11:48:02Z</time>
      </trkpt>
      <trkpt lat="44.90166" lon="5.14875">
        <ele>1076</ele>
        <time>2019-03-17T11:48:45Z</time>
      </trkpt>
      <trkpt lat="44.90178" lon="5.1485">
        <ele>1069</ele>
        <time>2019-03-17T11:49:07Z</time>
      </trkpt>
      <trkpt lat="44.90189" lon="5.14823">
        <ele>1060</ele>
        <time>2019-03-17T11:49:29Z</time>
      </trkpt>
      <trkpt lat="44.90201" lon="5.14817">
        <ele>1061</ele>
        <time>2019-03-17T11:50:16Z</time>
      </trkpt>
      <trkpt lat="44.902" lon="5.1481">
        <ele>1059</ele>
        <time>2019-03-17T12:34:03Z</time>
      </trkpt>
      <trkpt lat="44.90218" lon="5.14806">
        <ele>1062</ele>
        <time>2019-03-17T12:34:23Z</time>
      </trkpt>
      <trkpt lat="44.90238" lon="5.14799">
        <ele>1065</ele>
        <time>2019-03-17T12:34:43Z</time>
      </trkpt>
      <trkpt lat="44.90243" lon="5.14778">
        <ele>1058</ele>
        <time>2019-03-17T12:35:04Z</time>
      </trkpt>
      <trkpt lat="44.90254" lon="5.14758">
        <ele>1054</ele>
        <time>2019-03-17T12:35:25Z</time>
      </trkpt>
      <trkpt lat="44.90272" lon="5.14749">
        <ele>1058</ele>
        <time>2019-03-17T12:35:54Z</time>
      </trkpt>
      <trkpt lat="44.90282" lon="5.1473">
        <ele>1055</ele>
        <time>2019-03-17T12:36:12Z</time>
      </trkpt>
      <trkpt lat="44.9029" lon="5.14716">
        <ele>1052</ele>
        <time>2019-03-17T12:36:27Z</time>
      </trkpt>
      <trkpt lat="44.90303" lon="5.14703">
        <ele>1049</ele>
        <time>2019-03-17T12:36:42Z</time>
      </trkpt>
      <trkpt lat="44.90316" lon="5.14695">
        <ele>1051</ele>
        <time>2019-03-17T12:36:55Z</time>
      </trkpt>
      <trkpt lat="44.90328" lon="5.14687">
        <ele>1055</ele>
        <time>2019-03-17T12:37:07Z</time>
      </trkpt>
      <trkpt lat="44.90341" lon="5.14684">
        <ele>1059</ele>
        <time>2019-03-17T12:37:19Z</time>
      </trkpt>
      <trkpt lat="44.9035" lon="5.1468">
        <ele>1060</ele>
        <time>2019-03-17T12:37:32Z</time>
      </trkpt>
      <trkpt lat="44.90358" lon="5.14669">
        <ele>1057</ele>
        <time>2019-03-17T12:37:47Z</time>
      </trkpt>
      <trkpt lat="44.9037" lon="5.14667">
        <ele>1060</ele>
        <time>2019-03-17T12:38:00Z</time>
      </trkpt>
      <trkpt lat="44.90376" lon="5.14658">
        <ele>1058</ele>
        <time>2019-03-17T12:38:19Z</time>
      </trkpt>
      <trkpt lat="44.90376" lon="5.14651">
        <ele>1055</ele>
        <time>2019-03-17T12:38:39Z</time>
      </trkpt>
      <trkpt lat="44.9038" lon="5.14639">
        <ele>1052</ele>
        <time>2019-03-17T12:39:17Z</time>
      </trkpt>
      <trkpt lat="44.90371" lon="5.14637">
        <ele>1048</ele>
        <time>2019-03-17T12:40:00Z</time>
      </trkpt>
      <trkpt lat="44.90365" lon="5.14641">
        <ele>1048</ele>
        <time>2019-03-17T12:40:38Z</time>
      </trkpt>
      <trkpt lat="44.90361" lon="5.14647">
        <ele>1049</ele>
        <time>2019-03-17T12:41:08Z</time>
      </trkpt>
      <trkpt lat="44.9035" lon="5.14631">
        <ele>1038</ele>
        <time>2019-03-17T12:41:32Z</time>
      </trkpt>
      <trkpt lat="44.90343" lon="5.14638">
        <ele>1039</ele>
        <time>2019-03-17T12:41:46Z</time>
      </trkpt>
      <trkpt lat="44.90341" lon="5.14626">
        <ele>1033</ele>
        <time>2019-03-17T12:42:02Z</time>
      </trkpt>
      <trkpt lat="44.90345" lon="5.14623">
        <ele>1033</ele>
        <time>2019-03-17T12:42:30Z</time>
      </trkpt>
      <trkpt lat="44.90339" lon="5.14632">
        <ele>1034</ele>
        <time>2019-03-17T12:43:11Z</time>
      </trkpt>
      <trkpt lat="44.90325" lon="5.14639">
        <ele>1032</ele>
        <time>2019-03-17T12:43:41Z</time>
      </trkpt>
      <trkpt lat="44.90316" lon="5.14645">
        <ele>1031</ele>
        <time>2019-03-17T12:44:16Z</time>
      </trkpt>
      <trkpt lat="44.90303" lon="5.14651">
        <ele>1027</ele>
        <time>2019-03-17T12:44:55Z</time>
      </trkpt>
      <trkpt lat="44.90308" lon="5.14629">
        <ele>1019</ele>
        <time>2019-03-17T12:45:26Z</time>
      </trkpt>
      <trkpt lat="44.9032" lon="5.14604">
        <ele>1016</ele>
        <time>2019-03-17T12:45:52Z</time>
      </trkpt>
      <trkpt lat="44.90327" lon="5.14589">
        <ele>1014</ele>
        <time>2019-03-17T12:46:53Z</time>
      </trkpt>
      <trkpt lat="44.90315" lon="5.14576">
        <ele>1006</ele>
        <time>2019-03-17T12:47:23Z</time>
      </trkpt>
      <trkpt lat="44.90303" lon="5.14565">
        <ele>999</ele>
        <time>2019-03-17T12:47:56Z</time>
      </trkpt>
      <trkpt lat="44.90286" lon="5.14584">
        <ele>997</ele>
        <time>2019-03-17T12:48:29Z</time>
      </trkpt>
      <trkpt lat="44.90287" lon="5.14549">
        <ele>990</ele>
        <time>2019-03-17T12:49:01Z</time>
      </trkpt>
      <trkpt lat="44.90272" lon="5.14559">
        <ele>987</ele>
        <time>2019-03-17T12:49:34Z</time>
      </trkpt>
      <trkpt lat="44.90251" lon="5.14561">
        <ele>981</ele>
        <time>2019-03-17T12:50:11Z</time>
      </trkpt>
      <trkpt lat="44.90232" lon="5.14593">
        <ele>979</ele>
        <time>2019-03-17T12:50:41Z</time>
      </trkpt>
      <trkpt lat="44.90212" lon="5.14612">
        <ele>975</ele>
        <time>2019-03-17T12:51:10Z</time>
      </trkpt>
      <trkpt lat="44.90193" lon="5.1464">
        <ele>972</ele>
        <time>2019-03-17T12:51:38Z</time>
      </trkpt>
      <trkpt lat="44.90179" lon="5.14632">
        <ele>961</ele>
        <time>2019-03-17T12:51:59Z</time>
      </trkpt>
      <trkpt lat="44.90172" lon="5.14618">
        <ele>954</ele>
        <time>2019-03-17T12:52:23Z</time>
      </trkpt>
      <trkpt lat="44.9017" lon="5.14605">
        <ele>950</ele>
        <time>2019-03-17T12:53:54Z</time>
      </trkpt>
      <trkpt lat="44.90175" lon="5.14604">
        <ele>953</ele>
        <time>2019-03-17T12:54:31Z</time>
      </trkpt>
      <trkpt lat="44.90166" lon="5.14604">
        <ele>948</ele>
        <time>2019-03-17T12:54:58Z</time>
      </trkpt>
      <trkpt lat="44.90159" lon="5.14586">
        <ele>938</ele>
        <time>2019-03-17T12:55:13Z</time>
      </trkpt>
      <trkpt lat="44.90155" lon="5.14569">
        <ele>931</ele>
        <time>2019-03-17T12:55:29Z</time>
      </trkpt>
      <trkpt lat="44.90164" lon="5.14542">
        <ele>930</ele>
        <time>2019-03-17T12:55:47Z</time>
      </trkpt>
      <trkpt lat="44.90168" lon="5.14525">
        <ele>929</ele>
        <time>2019-03-17T12:56:08Z</time>
      </trkpt>
      <trkpt lat="44.90164" lon="5.14503">
        <ele>920</ele>
        <time>2019-03-17T12:56:21Z</time>
      </trkpt>
      <trkpt lat="44.90165" lon="5.14487">
        <ele>917</ele>
        <time>2019-03-17T12:56:38Z</time>
      </trkpt>
      <trkpt lat="44.90165" lon="5.14491">
        <ele>918</ele>
        <time>2019-03-17T12:57:23Z</time>
      </trkpt>
      <trkpt lat="44.90174" lon="5.14487">
        <ele>923</ele>
        <time>2019-03-17T12:58:12Z</time>
      </trkpt>
      <trkpt lat="44.90174" lon="5.14458">
        <ele>916</ele>
        <time>2019-03-17T12:58:34Z</time>
      </trkpt>
      <trkpt lat="44.90184" lon="5.14433">
        <ele>915</ele>
        <time>2019-03-17T12:58:55Z</time>
      </trkpt>
      <trkpt lat="44.90196" lon="5.14411">
        <ele>913</ele>
        <time>2019-03-17T12:59:19Z</time>
      </trkpt>
      <trkpt lat="44.9021" lon="5.1439">
        <ele>909</ele>
        <time>2019-03-17T12:59:45Z</time>
      </trkpt>
      <trkpt lat="44.90217" lon="5.14388">
        <ele>910</ele>
        <time>2019-03-17T13:00:50Z</time>
      </trkpt>
      <trkpt lat="44.90204" lon="5.14386">
        <ele>904</ele>
        <time>2019-03-17T13:02:14Z</time>
      </trkpt>
      <trkpt lat="44.90222" lon="5.14365">
        <ele>900</ele>
        <time>2019-03-17T13:02:43Z</time>
      </trkpt>
      <trkpt lat="44.90238" lon="5.14344">
        <ele>896</ele>
        <time>2019-03-17T13:03:17Z</time>
      </trkpt>
      <trkpt lat="44.90252" lon="5.14325">
        <ele>891</ele>
        <time>2019-03-17T13:03:52Z</time>
      </trkpt>
      <trkpt lat="44.90265" lon="5.14299">
        <ele>882</ele>
        <time>2019-03-17T13:04:28Z</time>
      </trkpt>
      <trkpt lat="44.90281" lon="5.14283">
        <ele>876</ele>
        <time>2019-03-17T13:04:53Z</time>
      </trkpt>
      <trkpt lat="44.90298" lon="5.14263">
        <ele>867</ele>
        <time>2019-03-17T13:05:30Z</time>
      </trkpt>
      <trkpt lat="44.90315" lon="5.14247">
        <ele>860</ele>
        <time>2019-03-17T13:06:12Z</time>
      </trkpt>
      <trkpt lat="44.90285" lon="5.14244">
        <ele>856</ele>
        <time>2019-03-17T13:06:43Z</time>
      </trkpt>
      <trkpt lat="44.90255" lon="5.14237">
        <ele>848</ele>
        <time>2019-03-17T13:07:09Z</time>
      </trkpt>
      <trkpt lat="44.90237" lon="5.14241">
        <ele>845</ele>
        <time>2019-03-17T13:07:37Z</time>
      </trkpt>
      <trkpt lat="44.90221" lon="5.14238">
        <ele>839</ele>
        <time>2019-03-17T13:08:04Z</time>
      </trkpt>
      <trkpt lat="44.90224" lon="5.14224">
        <ele>833</ele>
        <time>2019-03-17T13:08:27Z</time>
      </trkpt>
      <trkpt lat="44.90234" lon="5.14204">
        <ele>826</ele>
        <time>2019-03-17T13:08:52Z</time>
      </trkpt>
      <trkpt lat="44.90243" lon="5.14187">
        <ele>821</ele>
        <time>2019-03-17T13:09:34Z</time>
      </trkpt>
      <trkpt lat="44.90262" lon="5.1416">
        <ele>813</ele>
        <time>2019-03-17T13:10:08Z</time>
      </trkpt>
      <trkpt lat="44.90283" lon="5.14144">
        <ele>809</ele>
        <time>2019-03-17T13:10:36Z</time>
      </trkpt>
      <trkpt lat="44.9029" lon="5.1413">
        <ele>803</ele>
        <time>2019-03-17T13:11:08Z</time>
      </trkpt>
      <trkpt lat="44.9031" lon="5.14121">
        <ele>801</ele>
        <time>2019-03-17T13:11:37Z</time>
      </trkpt>
      <trkpt lat="44.90317" lon="5.14104">
        <ele>792</ele>
        <time>2019-03-17T13:12:18Z</time>
      </trkpt>
      <trkpt lat="44.90301" lon="5.14087">
        <ele>784</ele>
        <time>2019-03-17T13:12:44Z</time>
      </trkpt>
      <trkpt lat="44.90315" lon="5.14077">
        <ele>778</ele>
        <time>2019-03-17T13:13:06Z</time>
      </trkpt>
      <trkpt lat="44.90332" lon="5.14068">
        <ele>774</ele>
        <time>2019-03-17T13:13:30Z</time>
      </trkpt>
      <trkpt lat="44.90346" lon="5.14052">
        <ele>766</ele>
        <time>2019-03-17T13:14:01Z</time>
      </trkpt>
      <trkpt lat="44.90358" lon="5.14031">
        <ele>757</ele>
        <time>2019-03-17T13:14:25Z</time>
      </trkpt>
      <trkpt lat="44.9038" lon="5.14021">
        <ele>754</ele>
        <time>2019-03-17T13:14:54Z</time>
      </trkpt>
      <trkpt lat="44.90383" lon="5.14002">
        <ele>746</ele>
        <time>2019-03-17T13:15:17Z</time>
      </trkpt>
      <trkpt lat="44.90391" lon="5.13988">
        <ele>741</ele>
        <time>2019-03-17T13:15:29Z</time>
      </trkpt>
      <trkpt lat="44.90399" lon="5.13975">
        <ele>738</ele>
        <time>2019-03-17T13:15:41Z</time>
      </trkpt>
      <trkpt lat="44.90403" lon="5.13966">
        <ele>735</ele>
        <time>2019-03-17T13:15:53Z</time>
      </trkpt>
      <trkpt lat="44.90405" lon="5.13953">
        <ele>732</ele>
        <time>2019-03-17T13:16:05Z</time>
      </trkpt>
      <trkpt lat="44.90416" lon="5.13944">
        <ele>729</ele>
        <time>2019-03-17T13:16:16Z</time>
      </trkpt>
      <trkpt lat="44.90412" lon="5.13933">
        <ele>726</ele>
        <time>2019-03-17T13:16:29Z</time>
      </trkpt>
      <trkpt lat="44.90417" lon="5.13923">
        <ele>722</ele>
        <time>2019-03-17T13:16:44Z</time>
      </trkpt>
      <trkpt lat="44.90425" lon="5.13909">
        <ele>718</ele>
        <time>2019-03-17T13:17:03Z</time>
      </trkpt>
      <trkpt lat="44.90435" lon="5.13896">
        <ele>714</ele>
        <time>2019-03-17T13:17:24Z</time>
      </trkpt>
      <trkpt lat="44.90445" lon="5.13882">
        <ele>710</ele>
        <time>2019-03-17T13:17:45Z</time>
      </trkpt>
      <trkpt lat="44.90454" lon="5.13866">
        <ele>705</ele>
        <time>2019-03-17T13:18:05Z</time>
      </trkpt>
      <trkpt lat="44.90466" lon="5.13856">
        <ele>701</ele>
        <time>2019-03-17T13:18:27Z</time>
      </trkpt>
      <trkpt lat="44.9048" lon="5.13845">
        <ele>698</ele>
        <time>2019-03-17T13:19:09Z</time>
      </trkpt>
      <trkpt lat="44.90498" lon="5.13841">
        <ele>695</ele>
        <time>2019-03-17T13:19:38Z</time>
      </trkpt>
      <trkpt lat="44.90513" lon="5.13845">
        <ele>695</ele>
        <time>2019-03-17T13:20:14Z</time>
      </trkpt>
      <trkpt lat="44.90519" lon="5.13847">
        <ele>695</ele>
        <time>2019-03-17T13:21:02Z</time>
      </trkpt>
      <trkpt lat="44.90511" lon="5.13835">
        <ele>692</ele>
        <time>2019-03-17T13:21:29Z</time>
      </trkpt>
      <trkpt lat="44.90526" lon="5.13822">
        <ele>688</ele>
        <time>2019-03-17T13:22:04Z</time>
      </trkpt>
      <trkpt lat="44.9053" lon="5.13806">
        <ele>683</ele>
        <time>2019-03-17T13:22:25Z</time>
      </trkpt>
      <trkpt lat="44.90527" lon="5.13824">
        <ele>688</ele>
        <time>2019-03-17T13:23:01Z</time>
      </trkpt>
      <trkpt lat="44.9052" lon="5.13849">
        <ele>696</ele>
        <time>2019-03-17T13:23:31Z</time>
      </trkpt>
      <trkpt lat="44.90522" lon="5.13858">
        <ele>698</ele>
        <time>2019-03-17T13:24:17Z</time>
      </trkpt>
      <trkpt lat="44.90532" lon="5.1386">
        <ele>697</ele>
        <time>2019-03-17T13:24:54Z</time>
      </trkpt>
      <trkpt lat="44.90532" lon="5.13855">
        <ele>696</ele>
        <time>2019-03-17T13:25:37Z</time>
      </trkpt>
      <trkpt lat="44.90523" lon="5.13844">
        <ele>694</ele>
        <time>2019-03-17T13:26:09Z</time>
      </trkpt>
      <trkpt lat="44.9053" lon="5.13816">
        <ele>686</ele>
        <time>2019-03-17T13:26:39Z</time>
      </trkpt>
      <trkpt lat="44.90539" lon="5.13792">
        <ele>678</ele>
        <time>2019-03-17T13:26:59Z</time>
      </trkpt>
      <trkpt lat="44.90554" lon="5.13773">
        <ele>673</ele>
        <time>2019-03-17T13:27:28Z</time>
      </trkpt>
      <trkpt lat="44.90554" lon="5.13746">
        <ele>666</ele>
        <time>2019-03-17T13:27:58Z</time>
      </trkpt>
      <trkpt lat="44.90566" lon="5.13721">
        <ele>659</ele>
        <time>2019-03-17T13:28:28Z</time>
      </trkpt>
      <trkpt lat="44.90569" lon="5.13697">
        <ele>653</ele>
        <time>2019-03-17T13:28:52Z</time>
      </trkpt>
      <trkpt lat="44.9057" lon="5.13671">
        <ele>647</ele>
        <time>2019-03-17T13:29:27Z</time>
      </trkpt>
      <trkpt lat="44.90567" lon="5.13643">
        <ele>641</ele>
        <time>2019-03-17T13:29:56Z</time>
      </trkpt>
      <trkpt lat="44.90566" lon="5.13618">
        <ele>635</ele>
        <time>2019-03-17T13:30:20Z</time>
      </trkpt>
      <trkpt lat="44.90558" lon="5.13592">
        <ele>631</ele>
        <time>2019-03-17T13:30:49Z</time>
      </trkpt>
      <trkpt lat="44.9055" lon="5.13567">
        <ele>626</ele>
        <time>2019-03-17T13:31:39Z</time>
      </trkpt>
      <trkpt lat="44.90551" lon="5.13535">
        <ele>621</ele>
        <time>2019-03-17T13:32:08Z</time>
      </trkpt>
      <trkpt lat="44.90554" lon="5.13506">
        <ele>617</ele>
        <time>2019-03-17T13:32:32Z</time>
      </trkpt>
      <trkpt lat="44.90556" lon="5.13469">
        <ele>612</ele>
        <time>2019-03-17T13:33:08Z</time>
      </trkpt>
      <trkpt lat="44.90552" lon="5.13433">
        <ele>608</ele>
        <time>2019-03-17T13:33:32Z</time>
      </trkpt>
      <trkpt lat="44.90549" lon="5.134">
        <ele>604</ele>
        <time>2019-03-17T13:33:57Z</time>
      </trkpt>
      <trkpt lat="44.90556" lon="5.13368">
        <ele>600</ele>
        <time>2019-03-17T13:34:24Z</time>
      </trkpt>
      <trkpt lat="44.90562" lon="5.13341">
        <ele>592</ele>
        <time>2019-03-17T13:34:57Z</time>
      </trkpt>
      <trkpt lat="44.90564" lon="5.13309">
        <ele>582</ele>
        <time>2019-03-17T13:35:24Z</time>
      </trkpt>
      <trkpt lat="44.90567" lon="5.13285">
        <ele>577</ele>
        <time>2019-03-17T13:35:55Z</time>
      </trkpt>
      <trkpt lat="44.9057" lon="5.13254">
        <ele>571</ele>
        <time>2019-03-17T13:36:23Z</time>
      </trkpt>
      <trkpt lat="44.90574" lon="5.13224">
        <ele>567</ele>
        <time>2019-03-17T13:36:48Z</time>
      </trkpt>
      <trkpt lat="44.90584" lon="5.13199">
        <ele>563</ele>
        <time>2019-03-17T13:37:13Z</time>
      </trkpt>
      <trkpt lat="44.90583" lon="5.13168">
        <ele>561</ele>
        <time>2019-03-17T13:37:36Z</time>
      </trkpt>
      <trkpt lat="44.90586" lon="5.13133">
        <ele>557</ele>
        <time>2019-03-17T13:38:04Z</time>
      </trkpt>
      <trkpt lat="44.90592" lon="5.13119">
        <ele>554</ele>
        <time>2019-03-17T13:40:03Z</time>
      </trkpt>
      <trkpt lat="44.90596" lon="5.13144">
        <ele>556</ele>
        <time>2019-03-17T13:40:33Z</time>
      </trkpt>
      <trkpt lat="44.906" lon="5.13173">
        <ele>558</ele>
        <time>2019-03-17T13:40:50Z</time>
      </trkpt>
      <trkpt lat="44.90607" lon="5.13203">
        <ele>559</ele>
        <time>2019-03-17T13:41:09Z</time>
      </trkpt>
      <trkpt lat="44.90608" lon="5.13233">
        <ele>562</ele>
        <time>2019-03-17T13:41:28Z</time>
      </trkpt>
      <trkpt lat="44.90615" lon="5.13264">
        <ele>564</ele>
        <time>2019-03-17T13:41:49Z</time>
      </trkpt>
      <trkpt lat="44.90626" lon="5.13281">
        <ele>565</ele>
        <time>2019-03-17T13:42:17Z</time>
      </trkpt>
      <trkpt lat="44.9063" lon="5.13312">
        <ele>570</ele>
        <time>2019-03-17T13:42:38Z</time>
      </trkpt>
      <trkpt lat="44.9064" lon="5.13325">
        <ele>571</ele>
        <time>2019-03-17T13:43:45Z</time>
      </trkpt>
      <trkpt lat="44.90637" lon="5.13318">
        <ele>570</ele>
        <time>2019-03-17T13:45:36Z</time>
      </trkpt>
      <trkpt lat="44.90646" lon="5.13324">
        <ele>570</ele>
        <time>2019-03-17T13:46:21Z</time>
      </trkpt>
      <trkpt lat="44.90657" lon="5.13332">
        <ele>569</ele>
        <time>2019-03-17T13:50:55Z</time>
      </trkpt>
      <trkpt lat="44.90675" lon="5.13336">
        <ele>567</ele>
        <time>2019-03-17T13:51:12Z</time>
      </trkpt>
      <trkpt lat="44.90691" lon="5.13337">
        <ele>564</ele>
        <time>2019-03-17T13:51:31Z</time>
      </trkpt>
      <trkpt lat="44.90711" lon="5.13337">
        <ele>561</ele>
        <time>2019-03-17T13:51:52Z</time>
      </trkpt>
      <trkpt lat="44.90735" lon="5.13343">
        <ele>559</ele>
        <time>2019-03-17T13:52:11Z</time>
      </trkpt>
      <trkpt lat="44.90754" lon="5.1334">
        <ele>555</ele>
        <time>2019-03-17T13:52:28Z</time>
      </trkpt>
      <trkpt lat="44.90775" lon="5.13336">
        <ele>552</ele>
        <time>2019-03-17T13:52:50Z</time>
      </trkpt>
      <trkpt lat="44.90801" lon="5.13349">
        <ele>551</ele>
        <time>2019-03-17T13:53:10Z</time>
      </trkpt>
      <trkpt lat="44.90819" lon="5.13362">
        <ele>551</ele>
        <time>2019-03-17T13:53:29Z</time>
      </trkpt>
      <trkpt lat="44.90838" lon="5.1338">
        <ele>551</ele>
        <time>2019-03-17T13:54:00Z</time>
      </trkpt>
      <trkpt lat="44.9086" lon="5.13397">
        <ele>550</ele>
        <time>2019-03-17T13:54:24Z</time>
      </trkpt>
      <trkpt lat="44.9088" lon="5.1341">
        <ele>551</ele>
        <time>2019-03-17T13:54:46Z</time>
      </trkpt>
      <trkpt lat="44.9089" lon="5.13404">
        <ele>549</ele>
        <time>2019-03-17T13:55:01Z</time>
      </trkpt>
      <trkpt lat="44.90903" lon="5.13394">
        <ele>548</ele>
        <time>2019-03-17T13:55:16Z</time>
      </trkpt>
      <trkpt lat="44.90909" lon="5.13374">
        <ele>546</ele>
        <time>2019-03-17T13:55:30Z</time>
      </trkpt>
      <trkpt lat="44.90917" lon="5.13351">
        <ele>546</ele>
        <time>2019-03-17T13:55:43Z</time>
      </trkpt>
      <trkpt lat="44.90925" lon="5.1333">
        <ele>546</ele>
        <time>2019-03-17T13:55:56Z</time>
      </trkpt>
      <trkpt lat="44.90931" lon="5.13313">
        <ele>547</ele>
        <time>2019-03-17T13:56:09Z</time>
      </trkpt>
      <trkpt lat="44.90932" lon="5.13291">
        <ele>547</ele>
        <time>2019-03-17T13:56:23Z</time>
      </trkpt>
      <trkpt lat="44.90942" lon="5.13271">
        <ele>549</ele>
        <time>2019-03-17T13:56:35Z</time>
      </trkpt>
      <trkpt lat="44.90947" lon="5.13254">
        <ele>550</ele>
        <time>2019-03-17T13:56:47Z</time>
      </trkpt>
      <trkpt lat="44.90944" lon="5.13237">
        <ele>549</ele>
        <time>2019-03-17T13:56:59Z</time>
      </trkpt>
      <trkpt lat="44.90943" lon="5.13217">
        <ele>548</ele>
        <time>2019-03-17T13:57:11Z</time>
      </trkpt>
      <trkpt lat="44.90945" lon="5.13197">
        <ele>549</ele>
        <time>2019-03-17T13:57:23Z</time>
      </trkpt>
      <trkpt lat="44.9095" lon="5.13184">
        <ele>550</ele>
        <time>2019-03-17T13:57:34Z</time>
      </trkpt>
      <trkpt lat="44.9095" lon="5.13155">
        <ele>548</ele>
        <time>2019-03-17T13:57:46Z</time>
      </trkpt>
      <trkpt lat="44.90949" lon="5.13134">
        <ele>547</ele>
        <time>2019-03-17T13:57:56Z</time>
      </trkpt>
      <trkpt lat="44.90951" lon="5.13116">
        <ele>547</ele>
        <time>2019-03-17T13:58:08Z</time>
      </trkpt>
      <trkpt lat="44.90948" lon="5.1309">
        <ele>544</ele>
        <time>2019-03-17T13:58:19Z</time>
      </trkpt>
      <trkpt lat="44.90952" lon="5.13073">
        <ele>544</ele>
        <time>2019-03-17T13:58:30Z</time>
      </trkpt>
      <trkpt lat="44.90951" lon="5.13057">
        <ele>543</ele>
        <time>2019-03-17T13:58:40Z</time>
      </trkpt>
      <trkpt lat="44.9095" lon="5.13033">
        <ele>542</ele>
        <time>2019-03-17T13:58:51Z</time>
      </trkpt>
      <trkpt lat="44.90961" lon="5.13045">
        <ele>546</ele>
        <time>2019-03-17T13:59:03Z</time>
      </trkpt>
      <trkpt lat="44.90966" lon="5.13058">
        <ele>547</ele>
        <time>2019-03-17T13:59:15Z</time>
      </trkpt>
      <trkpt lat="44.90969" lon="5.13077">
        <ele>549</ele>
        <time>2019-03-17T13:59:34Z</time>
      </trkpt>
      <trkpt lat="44.90974" lon="5.13099">
        <ele>552</ele>
        <time>2019-03-17T14:00:02Z</time>
      </trkpt>
      <trkpt lat="44.90977" lon="5.13125">
        <ele>555</ele>
        <time>2019-03-17T14:00:33Z</time>
      </trkpt>
      <trkpt lat="44.90989" lon="5.13148">
        <ele>559</ele>
        <time>2019-03-17T14:01:03Z</time>
      </trkpt>
      <trkpt lat="44.9099" lon="5.13181">
        <ele>561</ele>
        <time>2019-03-17T14:01:51Z</time>
      </trkpt>
      <trkpt lat="44.91" lon="5.13219">
        <ele>566</ele>
        <time>2019-03-17T14:02:14Z</time>
      </trkpt>
      <trkpt lat="44.91005" lon="5.1325">
        <ele>568</ele>
        <time>2019-03-17T14:02:40Z</time>
      </trkpt>
      <trkpt lat="44.91012" lon="5.1328">
        <ele>572</ele>
        <time>2019-03-17T14:03:06Z</time>
      </trkpt>
      <trkpt lat="44.91017" lon="5.13307">
        <ele>576</ele>
        <time>2019-03-17T14:03:42Z</time>
      </trkpt>
      <trkpt lat="44.91028" lon="5.13334">
        <ele>582</ele>
        <time>2019-03-17T14:04:12Z</time>
      </trkpt>
      <trkpt lat="44.91034" lon="5.13365">
        <ele>589</ele>
        <time>2019-03-17T14:04:44Z</time>
      </trkpt>
      <trkpt lat="44.91045" lon="5.13391">
        <ele>597</ele>
        <time>2019-03-17T14:05:15Z</time>
      </trkpt>
      <trkpt lat="44.91044" lon="5.13414">
        <ele>600</ele>
        <time>2019-03-17T14:06:23Z</time>
      </trkpt>
      <trkpt lat="44.91039" lon="5.13446">
        <ele>603</ele>
        <time>2019-03-17T14:06:53Z</time>
      </trkpt>
      <trkpt lat="44.91038" lon="5.13464">
        <ele>604</ele>
        <time>2019-03-17T14:08:08Z</time>
      </trkpt>
      <trkpt lat="44.91039" lon="5.13492">
        <ele>607</ele>
        <time>2019-03-17T14:08:31Z</time>
      </trkpt>
      <trkpt lat="44.91037" lon="5.13518">
        <ele>608</ele>
        <time>2019-03-17T14:08:52Z</time>
      </trkpt>
      <trkpt lat="44.91038" lon="5.13547">
        <ele>611</ele>
        <time>2019-03-17T14:09:17Z</time>
      </trkpt>
      <trkpt lat="44.91039" lon="5.13576">
        <ele>614</ele>
        <time>2019-03-17T14:09:45Z</time>
      </trkpt>
      <trkpt lat="44.91043" lon="5.1361">
        <ele>617</ele>
        <time>2019-03-17T14:10:17Z</time>
      </trkpt>
      <trkpt lat="44.91047" lon="5.13644">
        <ele>620</ele>
        <time>2019-03-17T14:10:49Z</time>
      </trkpt>
      <trkpt lat="44.9105" lon="5.1367">
        <ele>623</ele>
        <time>2019-03-17T14:11:19Z</time>
      </trkpt>
      <trkpt lat="44.91049" lon="5.13697">
        <ele>626</ele>
        <time>2019-03-17T14:11:47Z</time>
      </trkpt>
      <trkpt lat="44.91043" lon="5.13721">
        <ele>632</ele>
        <time>2019-03-17T14:12:42Z</time>
      </trkpt>
      <trkpt lat="44.9104" lon="5.13746">
        <ele>637</ele>
        <time>2019-03-17T14:13:01Z</time>
      </trkpt>
      <trkpt lat="44.91047" lon="5.13775">
        <ele>640</ele>
        <time>2019-03-17T14:13:22Z</time>
      </trkpt>
      <trkpt lat="44.91054" lon="5.13799">
        <ele>642</ele>
        <time>2019-03-17T14:13:39Z</time>
      </trkpt>
      <trkpt lat="44.91062" lon="5.13826">
        <ele>644</ele>
        <time>2019-03-17T14:13:59Z</time>
      </trkpt>
      <trkpt lat="44.91073" lon="5.13853">
        <ele>643</ele>
        <time>2019-03-17T14:14:20Z</time>
      </trkpt>
      <trkpt lat="44.91082" lon="5.13884">
        <ele>645</ele>
        <time>2019-03-17T14:14:42Z</time>
      </trkpt>
      <trkpt lat="44.91092" lon="5.13901">
        <ele>645</ele>
        <time>2019-03-17T14:15:12Z</time>
      </trkpt>
      <trkpt lat="44.91104" lon="5.13888">
        <ele>640</ele>
        <time>2019-03-17T14:15:42Z</time>
      </trkpt>
      <trkpt lat="44.91123" lon="5.13883">
        <ele>634</ele>
        <time>2019-03-17T14:16:07Z</time>
      </trkpt>
      <trkpt lat="44.91146" lon="5.13874">
        <ele>634</ele>
        <time>2019-03-17T14:16:26Z</time>
      </trkpt>
      <trkpt lat="44.91159" lon="5.1385">
        <ele>628</ele>
        <time>2019-03-17T14:16:45Z</time>
      </trkpt>
      <trkpt lat="44.91169" lon="5.13834">
        <ele>625</ele>
        <time>2019-03-17T14:17:03Z</time>
      </trkpt>
      <trkpt lat="44.91183" lon="5.13822">
        <ele>626</ele>
        <time>2019-03-17T14:17:20Z</time>
      </trkpt>
      <trkpt lat="44.91197" lon="5.13808">
        <ele>628</ele>
        <time>2019-03-17T14:17:36Z</time>
      </trkpt>
      <trkpt lat="44.9121" lon="5.13793">
        <ele>629</ele>
        <time>2019-03-17T14:17:51Z</time>
      </trkpt>
      <trkpt lat="44.91224" lon="5.13778">
        <ele>630</ele>
        <time>2019-03-17T14:18:11Z</time>
      </trkpt>
      <trkpt lat="44.9124" lon="5.13764">
        <ele>630</ele>
        <time>2019-03-17T14:18:33Z</time>
      </trkpt>
      <trkpt lat="44.91259" lon="5.1375">
        <ele>631</ele>
        <time>2019-03-17T14:18:56Z</time>
      </trkpt>
      <trkpt lat="44.91277" lon="5.13733">
        <ele>626</ele>
        <time>2019-03-17T14:19:19Z</time>
      </trkpt>
      <trkpt lat="44.91294" lon="5.13748">
        <ele>628</ele>
        <time>2019-03-17T14:19:53Z</time>
      </trkpt>
      <trkpt lat="44.91307" lon="5.13774">
        <ele>629</ele>
        <time>2019-03-17T14:20:15Z</time>
      </trkpt>
      <trkpt lat="44.91306" lon="5.138">
        <ele>632</ele>
        <time>2019-03-17T14:20:41Z</time>
      </trkpt>
      <trkpt lat="44.91305" lon="5.13837">
        <ele>634</ele>
        <time>2019-03-17T14:21:06Z</time>
      </trkpt>
      <trkpt lat="44.91306" lon="5.13858">
        <ele>637</ele>
        <time>2019-03-17T14:21:38Z</time>
      </trkpt>
      <trkpt lat="44.91328" lon="5.1384">
        <ele>633</ele>
        <time>2019-03-17T14:22:08Z</time>
      </trkpt>
      <trkpt lat="44.91337" lon="5.13869">
        <ele>638</ele>
        <time>2019-03-17T14:22:43Z</time>
      </trkpt>
      <trkpt lat="44.91348" lon="5.13871">
        <ele>639</ele>
        <time>2019-03-17T14:23:12Z</time>
      </trkpt>
      <trkpt lat="44.91363" lon="5.13855">
        <ele>636</ele>
        <time>2019-03-17T14:23:35Z</time>
      </trkpt>
      <trkpt lat="44.91387" lon="5.13859">
        <ele>639</ele>
        <time>2019-03-17T14:24:01Z</time>
      </trkpt>
      <trkpt lat="44.91409" lon="5.13844">
        <ele>639</ele>
        <time>2019-03-17T14:24:30Z</time>
      </trkpt>
      <trkpt lat="44.91418" lon="5.13825">
        <ele>636</ele>
        <time>2019-03-17T14:25:07Z</time>
      </trkpt>
      <trkpt lat="44.91439" lon="5.13813">
        <ele>637</ele>
        <time>2019-03-17T14:25:32Z</time>
      </trkpt>
      <trkpt lat="44.91457" lon="5.13798">
        <ele>635</ele>
        <time>2019-03-17T14:26:06Z</time>
      </trkpt>
      <trkpt lat="44.91475" lon="5.13786">
        <ele>634</ele>
        <time>2019-03-17T14:26:23Z</time>
      </trkpt>
      <trkpt lat="44.91486" lon="5.13766">
        <ele>630</ele>
        <time>2019-03-17T14:26:52Z</time>
      </trkpt>
      <trkpt lat="44.91503" lon="5.13758">
        <ele>628</ele>
        <time>2019-03-17T14:27:50Z</time>
      </trkpt>
      <trkpt lat="44.91504" lon="5.13752">
        <ele>626</ele>
        <time>2019-03-17T14:29:11Z</time>
      </trkpt>
      <trkpt lat="44.91524" lon="5.13754">
        <ele>626</ele>
        <time>2019-03-17T14:29:36Z</time>
      </trkpt>
      <trkpt lat="44.91544" lon="5.13759">
        <ele>624</ele>
        <time>2019-03-17T14:29:58Z</time>
      </trkpt>
      <trkpt lat="44.91561" lon="5.13769">
        <ele>622</ele>
        <time>2019-03-17T14:30:19Z</time>
      </trkpt>
      <trkpt lat="44.9157" lon="5.13794">
        <ele>622</ele>
        <time>2019-03-17T14:30:46Z</time>
      </trkpt>
      <trkpt lat="44.91571" lon="5.13822">
        <ele>625</ele>
        <time>2019-03-17T14:31:11Z</time>
      </trkpt>
      <trkpt lat="44.91573" lon="5.13851">
        <ele>628</ele>
        <time>2019-03-17T14:31:31Z</time>
      </trkpt>
      <trkpt lat="44.91576" lon="5.13891">
        <ele>634</ele>
        <time>2019-03-17T14:31:55Z</time>
      </trkpt>
      <trkpt lat="44.91585" lon="5.13877">
        <ele>633</ele>
        <time>2019-03-17T14:32:18Z</time>
      </trkpt>
      <trkpt lat="44.91602" lon="5.13854">
        <ele>632</ele>
        <time>2019-03-17T14:32:39Z</time>
      </trkpt>
      <trkpt lat="44.9162" lon="5.13831">
        <ele>630</ele>
        <time>2019-03-17T14:32:57Z</time>
      </trkpt>
      <trkpt lat="44.91633" lon="5.13813">
        <ele>627</ele>
        <time>2019-03-17T14:33:12Z</time>
      </trkpt>
      <trkpt lat="44.91642" lon="5.13792">
        <ele>623</ele>
        <time>2019-03-17T14:33:25Z</time>
      </trkpt>
      <trkpt lat="44.91657" lon="5.13782">
        <ele>623</ele>
        <time>2019-03-17T14:33:37Z</time>
      </trkpt>
      <trkpt lat="44.91671" lon="5.13782">
        <ele>623</ele>
        <time>2019-03-17T14:33:48Z</time>
      </trkpt>
      <trkpt lat="44.91681" lon="5.13796">
        <ele>625</ele>
        <time>2019-03-17T14:34:02Z</time>
      </trkpt>
      <trkpt lat="44.91694" lon="5.13806">
        <ele>627</ele>
        <time>2019-03-17T14:34:15Z</time>
      </trkpt>
      <trkpt lat="44.91705" lon="5.13816">
        <ele>628</ele>
        <time>2019-03-17T14:34:28Z</time>
      </trkpt>
      <trkpt lat="44.91719" lon="5.13828">
        <ele>628</ele>
        <time>2019-03-17T14:34:43Z</time>
      </trkpt>
      <trkpt lat="44.91735" lon="5.13841">
        <ele>629</ele>
        <time>2019-03-17T14:34:58Z</time>
      </trkpt>
      <trkpt lat="44.91753" lon="5.13853">
        <ele>628</ele>
        <time>2019-03-17T14:35:17Z</time>
      </trkpt>
      <trkpt lat="44.91771" lon="5.13864">
        <ele>627</ele>
        <time>2019-03-17T14:35:34Z</time>
      </trkpt>
      <trkpt lat="44.91788" lon="5.13869">
        <ele>626</ele>
        <time>2019-03-17T14:35:49Z</time>
      </trkpt>
      <trkpt lat="44.91806" lon="5.1388">
        <ele>624</ele>
        <time>2019-03-17T14:36:07Z</time>
      </trkpt>
      <trkpt lat="44.91815" lon="5.13903">
        <ele>624</ele>
        <time>2019-03-17T14:36:26Z</time>
      </trkpt>
      <trkpt lat="44.91823" lon="5.13924">
        <ele>625</ele>
        <time>2019-03-17T14:36:58Z</time>
      </trkpt>
      <trkpt lat="44.9184" lon="5.1394">
        <ele>623</ele>
        <time>2019-03-17T14:37:16Z</time>
      </trkpt>
      <trkpt lat="44.91859" lon="5.13955">
        <ele>622</ele>
        <time>2019-03-17T14:37:47Z</time>
      </trkpt>
      <trkpt lat="44.91878" lon="5.13965">
        <ele>620</ele>
        <time>2019-03-17T14:38:08Z</time>
      </trkpt>
      <trkpt lat="44.91898" lon="5.1396">
        <ele>617</ele>
        <time>2019-03-17T14:38:26Z</time>
      </trkpt>
      <trkpt lat="44.91919" lon="5.1395">
        <ele>614</ele>
        <time>2019-03-17T14:38:44Z</time>
      </trkpt>
      <trkpt lat="44.91937" lon="5.1395">
        <ele>611</ele>
        <time>2019-03-17T14:39:02Z</time>
      </trkpt>
      <trkpt lat="44.91952" lon="5.13965">
        <ele>609</ele>
        <time>2019-03-17T14:39:18Z</time>
      </trkpt>
      <trkpt lat="44.91956" lon="5.13991">
        <ele>610</ele>
        <time>2019-03-17T14:39:41Z</time>
      </trkpt>
      <trkpt lat="44.91957" lon="5.14006">
        <ele>609</ele>
        <time>2019-03-17T14:40:46Z</time>
      </trkpt>
      <trkpt lat="44.91954" lon="5.14002">
        <ele>610</ele>
        <time>2019-03-17T14:41:24Z</time>
      </trkpt>
    </trkseg>
  </trk>
</gpx>